sensor_id;sensor_type;location;lat;lon;timestamp;P1;durP1;ratioP1;P2;durP2;ratioP2
76574;SDS011;65439;50.948;6.988;2023-12-14T00:02:20;25.27;;;14.70;;
76574;SDS011;65439;50.948;6.988;2023-12-14T00:04:45;27.17;;;14.17;;
76574;SDS011;65439;50.948;6.988;2023-12-14T00:07:11;30.07;;;13.57;;
76574;SDS011;65439;50.948;6.988;2023-12-14T00:09:39;19.30;;;13.35;;
76574;SDS011;65439;50.948;6.988;2023-12-14T00:12:05;33.40;;;14.80;;
76574;SDS011;65439;50.948;6.988;2023-12-14T00:14:30;25.13;;;14.85;;
76574;SDS011;65439;50.948;6.988;2023-12-14T00:16:56;31.63;;;15.93;;
76574;SDS011;65439;50.948;6.988;2023-12-14T00:19:24;26.45;;;15.10;;
76574;SDS011;65439;50.948;6.988;2023-12-14T00:21:49;29.25;;;17.15;;
76574;SDS011;65439;50.948;6.988;2023-12-14T00:24:14;35.95;;;16.88;;
76574;SDS011;65439;50.948;6.988;2023-12-14T00:26:40;31.60;;;17.73;;
76574;SDS011;65439;50.948;6.988;2023-12-14T00:29:05;30.27;;;17.70;;
76574;SDS011;65439;50.948;6.988;2023-12-14T00:31:30;33.93;;;16.83;;
76574;SDS011;65439;50.948;6.988;2023-12-14T00:33:56;28.27;;;15.13;;
76574;SDS011;65439;50.948;6.988;2023-12-14T00:36:21;31.40;;;16.40;;
76574;SDS011;65439;50.948;6.988;2023-12-14T00:38:46;37.60;;;17.10;;
76574;SDS011;65439;50.948;6.988;2023-12-14T00:41:11;31.00;;;17.73;;
76574;SDS011;65439;50.948;6.988;2023-12-14T00:43:37;32.67;;;18.00;;
76574;SDS011;65439;50.948;6.988;2023-12-14T00:46:03;37.53;;;20.55;;
76574;SDS011;65439;50.948;6.988;2023-12-14T00:48:28;42.72;;;20.58;;
76574;SDS011;65439;50.948;6.988;2023-12-14T00:50:53;37.17;;;19.63;;
76574;SDS011;65439;50.948;6.988;2023-12-14T00:53:19;38.77;;;19.30;;
76574;SDS011;65439;50.948;6.988;2023-12-14T00:55:44;42.73;;;19.00;;
76574;SDS011;65439;50.948;6.988;2023-12-14T00:58:10;49.35;;;21.65;;
76574;SDS011;65439;50.948;6.988;2023-12-14T01:00:37;42.58;;;20.23;;
76574;SDS011;65439;50.948;6.988;2023-12-14T01:03:03;45.55;;;18.50;;
76574;SDS011;65439;50.948;6.988;2023-12-14T01:05:28;39.03;;;21.47;;
76574;SDS011;65439;50.948;6.988;2023-12-14T01:07:53;40.30;;;18.90;;
76574;SDS011;65439;50.948;6.988;2023-12-14T01:10:19;40.60;;;17.77;;
76574;SDS011;65439;50.948;6.988;2023-12-14T01:12:44;43.97;;;18.20;;
76574;SDS011;65439;50.948;6.988;2023-12-14T01:15:09;43.33;;;19.40;;
76574;SDS011;65439;50.948;6.988;2023-12-14T01:17:35;43.97;;;20.02;;
76574;SDS011;65439;50.948;6.988;2023-12-14T01:20:03;44.08;;;18.33;;
76574;SDS011;65439;50.948;6.988;2023-12-14T01:22:32;46.75;;;20.92;;
76574;SDS011;65439;50.948;6.988;2023-12-14T01:24:57;41.92;;;18.83;;
76574;SDS011;65439;50.948;6.988;2023-12-14T01:27:23;40.30;;;19.37;;
76574;SDS011;65439;50.948;6.988;2023-12-14T01:29:48;44.33;;;20.27;;
76574;SDS011;65439;50.948;6.988;2023-12-14T01:32:13;45.45;;;20.00;;
76574;SDS011;65439;50.948;6.988;2023-12-14T01:34:39;39.42;;;19.48;;
76574;SDS011;65439;50.948;6.988;2023-12-14T01:37:05;50.90;;;21.67;;
76574;SDS011;65439;50.948;6.988;2023-12-14T01:39:30;49.92;;;21.67;;
76574;SDS011;65439;50.948;6.988;2023-12-14T01:41:55;48.23;;;21.00;;
76574;SDS011;65439;50.948;6.988;2023-12-14T01:44:21;46.13;;;21.33;;
76574;SDS011;65439;50.948;6.988;2023-12-14T01:46:46;43.22;;;20.13;;
76574;SDS011;65439;50.948;6.988;2023-12-14T01:49:11;45.63;;;21.00;;
76574;SDS011;65439;50.948;6.988;2023-12-14T01:51:37;49.03;;;23.13;;
76574;SDS011;65439;50.948;6.988;2023-12-14T01:54:02;48.80;;;20.33;;
76574;SDS011;65439;50.948;6.988;2023-12-14T01:56:27;43.25;;;19.13;;
76574;SDS011;65439;50.948;6.988;2023-12-14T01:58:53;48.63;;;22.60;;
76574;SDS011;65439;50.948;6.988;2023-12-14T02:01:28;42.97;;;21.10;;
76574;SDS011;65439;50.948;6.988;2023-12-14T02:04:00;47.80;;;20.58;;
76574;SDS011;65439;50.948;6.988;2023-12-14T02:06:26;55.50;;;23.75;;
76574;SDS011;65439;50.948;6.988;2023-12-14T02:08:52;40.10;;;18.10;;
76574;SDS011;65439;50.948;6.988;2023-12-14T02:11:17;49.97;;;21.98;;
76574;SDS011;65439;50.948;6.988;2023-12-14T02:13:42;50.93;;;21.63;;
76574;SDS011;65439;50.948;6.988;2023-12-14T02:16:08;53.07;;;21.43;;
76574;SDS011;65439;50.948;6.988;2023-12-14T02:18:34;44.55;;;20.52;;
76574;SDS011;65439;50.948;6.988;2023-12-14T02:20:59;55.23;;;22.70;;
76574;SDS011;65439;50.948;6.988;2023-12-14T02:23:24;56.50;;;21.83;;
76574;SDS011;65439;50.948;6.988;2023-12-14T02:25:50;51.38;;;21.52;;
76574;SDS011;65439;50.948;6.988;2023-12-14T02:28:15;48.97;;;21.67;;
76574;SDS011;65439;50.948;6.988;2023-12-14T02:30:40;59.80;;;25.23;;
76574;SDS011;65439;50.948;6.988;2023-12-14T02:33:06;58.88;;;22.67;;
76574;SDS011;65439;50.948;6.988;2023-12-14T02:35:31;60.80;;;24.13;;
76574;SDS011;65439;50.948;6.988;2023-12-14T02:37:56;59.40;;;23.43;;
76574;SDS011;65439;50.948;6.988;2023-12-14T02:40:22;63.83;;;25.83;;
76574;SDS011;65439;50.948;6.988;2023-12-14T02:42:47;60.50;;;25.50;;
76574;SDS011;65439;50.948;6.988;2023-12-14T02:45:12;66.93;;;23.10;;
76574;SDS011;65439;50.948;6.988;2023-12-14T02:47:37;57.03;;;22.20;;
76574;SDS011;65439;50.948;6.988;2023-12-14T02:50:03;60.88;;;23.90;;
76574;SDS011;65439;50.948;6.988;2023-12-14T02:52:29;59.22;;;21.90;;
76574;SDS011;65439;50.948;6.988;2023-12-14T02:54:54;58.87;;;25.07;;
76574;SDS011;65439;50.948;6.988;2023-12-14T02:57:19;75.53;;;26.50;;
76574;SDS011;65439;50.948;6.988;2023-12-14T02:59:44;65.60;;;22.83;;
76574;SDS011;65439;50.948;6.988;2023-12-14T03:02:10;68.47;;;23.13;;
76574;SDS011;65439;50.948;6.988;2023-12-14T03:04:37;80.25;;;29.67;;
76574;SDS011;65439;50.948;6.988;2023-12-14T03:07:03;66.28;;;22.33;;
76574;SDS011;65439;50.948;6.988;2023-12-14T03:09:29;65.10;;;23.73;;
76574;SDS011;65439;50.948;6.988;2023-12-14T03:11:54;63.67;;;21.93;;
76574;SDS011;65439;50.948;6.988;2023-12-14T03:14:20;53.63;;;21.75;;
76574;SDS011;65439;50.948;6.988;2023-12-14T03:16:45;39.65;;;16.77;;
76574;SDS011;65439;50.948;6.988;2023-12-14T03:19:11;58.70;;;24.13;;
76574;SDS011;65439;50.948;6.988;2023-12-14T03:21:36;44.80;;;17.80;;
76574;SDS011;65439;50.948;6.988;2023-12-14T03:24:01;50.00;;;22.10;;
76574;SDS011;65439;50.948;6.988;2023-12-14T03:26:27;37.63;;;16.60;;
76574;SDS011;65439;50.948;6.988;2023-12-14T03:28:52;55.30;;;23.65;;
76574;SDS011;65439;50.948;6.988;2023-12-14T03:31:18;45.33;;;20.30;;
76574;SDS011;65439;50.948;6.988;2023-12-14T03:33:43;45.67;;;18.80;;
76574;SDS011;65439;50.948;6.988;2023-12-14T03:36:08;43.37;;;18.40;;
76574;SDS011;65439;50.948;6.988;2023-12-14T03:38:34;43.10;;;19.07;;
76574;SDS011;65439;50.948;6.988;2023-12-14T03:40:59;34.67;;;17.83;;
76574;SDS011;65439;50.948;6.988;2023-12-14T03:43:24;28.60;;;12.00;;
76574;SDS011;65439;50.948;6.988;2023-12-14T03:45:50;45.78;;;19.45;;
76574;SDS011;65439;50.948;6.988;2023-12-14T03:48:15;50.95;;;19.58;;
76574;SDS011;65439;50.948;6.988;2023-12-14T03:50:40;40.73;;;20.90;;
76574;SDS011;65439;50.948;6.988;2023-12-14T03:53:06;40.85;;;20.20;;
76574;SDS011;65439;50.948;6.988;2023-12-14T03:55:31;58.85;;;26.70;;
76574;SDS011;65439;50.948;6.988;2023-12-14T03:57:57;45.80;;;23.83;;
76574;SDS011;65439;50.948;6.988;2023-12-14T04:00:22;34.87;;;16.27;;
76574;SDS011;65439;50.948;6.988;2023-12-14T04:02:48;34.87;;;17.90;;
76574;SDS011;65439;50.948;6.988;2023-12-14T04:05:13;37.95;;;21.02;;
76574;SDS011;65439;50.948;6.988;2023-12-14T04:07:39;36.23;;;17.00;;
76574;SDS011;65439;50.948;6.988;2023-12-14T04:10:14;39.38;;;17.58;;
76574;SDS011;65439;50.948;6.988;2023-12-14T04:12:40;29.70;;;14.32;;
76574;SDS011;65439;50.948;6.988;2023-12-14T04:15:06;26.58;;;14.43;;
76574;SDS011;65439;50.948;6.988;2023-12-14T04:17:32;30.55;;;16.92;;
76574;SDS011;65439;50.948;6.988;2023-12-14T04:19:58;31.20;;;16.67;;
76574;SDS011;65439;50.948;6.988;2023-12-14T04:22:23;38.38;;;21.17;;
76574;SDS011;65439;50.948;6.988;2023-12-14T04:24:49;33.80;;;19.25;;
76574;SDS011;65439;50.948;6.988;2023-12-14T04:27:15;32.03;;;16.27;;
76574;SDS011;65439;50.948;6.988;2023-12-14T04:29:40;20.70;;;13.77;;
76574;SDS011;65439;50.948;6.988;2023-12-14T04:32:06;28.08;;;16.83;;
76574;SDS011;65439;50.948;6.988;2023-12-14T04:34:31;31.07;;;15.07;;
76574;SDS011;65439;50.948;6.988;2023-12-14T04:36:56;19.15;;;9.75;;
76574;SDS011;65439;50.948;6.988;2023-12-14T04:39:23;30.00;;;15.68;;
76574;SDS011;65439;50.948;6.988;2023-12-14T04:41:49;22.95;;;12.35;;
76574;SDS011;65439;50.948;6.988;2023-12-14T04:44:15;28.17;;;15.40;;
76574;SDS011;65439;50.948;6.988;2023-12-14T04:46:40;25.37;;;13.37;;
76574;SDS011;65439;50.948;6.988;2023-12-14T04:49:06;30.07;;;14.17;;
76574;SDS011;65439;50.948;6.988;2023-12-14T04:51:31;33.20;;;15.77;;
76574;SDS011;65439;50.948;6.988;2023-12-14T04:53:57;32.03;;;16.80;;
76574;SDS011;65439;50.948;6.988;2023-12-14T04:56:22;38.47;;;17.27;;
76574;SDS011;65439;50.948;6.988;2023-12-14T04:58:48;39.90;;;18.77;;
76574;SDS011;65439;50.948;6.988;2023-12-14T05:01:13;34.13;;;17.13;;
76574;SDS011;65439;50.948;6.988;2023-12-14T05:03:38;34.57;;;16.40;;
76574;SDS011;65439;50.948;6.988;2023-12-14T05:06:04;42.97;;;17.67;;
76574;SDS011;65439;50.948;6.988;2023-12-14T05:08:29;44.88;;;19.83;;
76574;SDS011;65439;50.948;6.988;2023-12-14T05:10:54;39.33;;;18.98;;
76574;SDS011;65439;50.948;6.988;2023-12-14T05:13:19;32.87;;;17.07;;
76574;SDS011;65439;50.948;6.988;2023-12-14T05:15:45;33.17;;;15.88;;
76574;SDS011;65439;50.948;6.988;2023-12-14T05:18:10;37.38;;;15.43;;
76574;SDS011;65439;50.948;6.988;2023-12-14T05:20:36;39.77;;;20.50;;
76574;SDS011;65439;50.948;6.988;2023-12-14T05:23:01;40.83;;;17.13;;
76574;SDS011;65439;50.948;6.988;2023-12-14T05:25:27;40.38;;;18.75;;
76574;SDS011;65439;50.948;6.988;2023-12-14T05:27:52;36.55;;;17.75;;
76574;SDS011;65439;50.948;6.988;2023-12-14T05:30:17;42.77;;;18.03;;
76574;SDS011;65439;50.948;6.988;2023-12-14T05:32:43;38.57;;;17.17;;
76574;SDS011;65439;50.948;6.988;2023-12-14T05:35:09;45.67;;;16.27;;
76574;SDS011;65439;50.948;6.988;2023-12-14T05:37:34;38.35;;;16.63;;
76574;SDS011;65439;50.948;6.988;2023-12-14T05:40:00;35.35;;;16.23;;
76574;SDS011;65439;50.948;6.988;2023-12-14T05:42:25;38.40;;;15.23;;
76574;SDS011;65439;50.948;6.988;2023-12-14T05:44:51;35.65;;;15.02;;
76574;SDS011;65439;50.948;6.988;2023-12-14T05:47:16;31.63;;;15.80;;
76574;SDS011;65439;50.948;6.988;2023-12-14T05:49:42;40.50;;;15.70;;
76574;SDS011;65439;50.948;6.988;2023-12-14T05:52:07;34.63;;;13.98;;
76574;SDS011;65439;50.948;6.988;2023-12-14T05:54:33;40.75;;;16.00;;
76574;SDS011;65439;50.948;6.988;2023-12-14T05:57:01;47.55;;;19.73;;
76574;SDS011;65439;50.948;6.988;2023-12-14T05:59:26;37.13;;;16.57;;
76574;SDS011;65439;50.948;6.988;2023-12-14T06:01:56;41.80;;;20.30;;
76574;SDS011;65439;50.948;6.988;2023-12-14T06:04:22;43.47;;;19.80;;
76574;SDS011;65439;50.948;6.988;2023-12-14T06:06:47;41.30;;;16.67;;
76574;SDS011;65439;50.948;6.988;2023-12-14T06:09:12;36.63;;;16.90;;
76574;SDS011;65439;50.948;6.988;2023-12-14T06:11:37;45.53;;;20.00;;
76574;SDS011;65439;50.948;6.988;2023-12-14T06:14:03;45.20;;;17.13;;
76574;SDS011;65439;50.948;6.988;2023-12-14T06:16:28;40.43;;;16.27;;
76574;SDS011;65439;50.948;6.988;2023-12-14T06:18:53;45.83;;;18.53;;
76574;SDS011;65439;50.948;6.988;2023-12-14T06:21:19;31.13;;;17.67;;
76574;SDS011;65439;50.948;6.988;2023-12-14T06:23:44;46.97;;;21.10;;
76574;SDS011;65439;50.948;6.988;2023-12-14T06:26:09;51.73;;;21.73;;
76574;SDS011;65439;50.948;6.988;2023-12-14T06:28:35;47.10;;;19.80;;
76574;SDS011;65439;50.948;6.988;2023-12-14T06:31:00;46.07;;;17.20;;
76574;SDS011;65439;50.948;6.988;2023-12-14T06:33:26;47.63;;;19.73;;
76574;SDS011;65439;50.948;6.988;2023-12-14T06:35:51;39.83;;;17.83;;
76574;SDS011;65439;50.948;6.988;2023-12-14T06:38:17;48.25;;;18.40;;
76574;SDS011;65439;50.948;6.988;2023-12-14T06:40:42;41.07;;;16.80;;
76574;SDS011;65439;50.948;6.988;2023-12-14T06:43:07;45.40;;;17.67;;
76574;SDS011;65439;50.948;6.988;2023-12-14T06:45:33;35.20;;;17.27;;
76574;SDS011;65439;50.948;6.988;2023-12-14T06:47:58;42.40;;;16.67;;
76574;SDS011;65439;50.948;6.988;2023-12-14T06:50:23;44.03;;;16.93;;
76574;SDS011;65439;50.948;6.988;2023-12-14T06:52:48;42.07;;;18.73;;
76574;SDS011;65439;50.948;6.988;2023-12-14T06:55:14;41.60;;;19.10;;
76574;SDS011;65439;50.948;6.988;2023-12-14T06:57:42;45.60;;;20.50;;
76574;SDS011;65439;50.948;6.988;2023-12-14T07:00:08;42.97;;;19.20;;
76574;SDS011;65439;50.948;6.988;2023-12-14T07:02:34;45.38;;;22.25;;
76574;SDS011;65439;50.948;6.988;2023-12-14T07:04:59;39.07;;;17.37;;
76574;SDS011;65439;50.948;6.988;2023-12-14T07:07:25;51.00;;;21.35;;
76574;SDS011;65439;50.948;6.988;2023-12-14T07:09:50;51.77;;;20.33;;
76574;SDS011;65439;50.948;6.988;2023-12-14T07:12:15;62.40;;;26.30;;
76574;SDS011;65439;50.948;6.988;2023-12-14T07:14:40;40.67;;;17.30;;
76574;SDS011;65439;50.948;6.988;2023-12-14T07:17:06;40.13;;;14.53;;
76574;SDS011;65439;50.948;6.988;2023-12-14T07:19:31;43.03;;;15.77;;
76574;SDS011;65439;50.948;6.988;2023-12-14T07:21:57;52.85;;;19.55;;
76574;SDS011;65439;50.948;6.988;2023-12-14T07:24:22;57.90;;;23.63;;
76574;SDS011;65439;50.948;6.988;2023-12-14T07:26:47;57.37;;;22.87;;
76574;SDS011;65439;50.948;6.988;2023-12-14T07:29:12;56.57;;;21.83;;
76574;SDS011;65439;50.948;6.988;2023-12-14T07:31:38;51.67;;;22.97;;
76574;SDS011;65439;50.948;6.988;2023-12-14T07:34:03;61.10;;;21.97;;
76574;SDS011;65439;50.948;6.988;2023-12-14T07:36:28;54.20;;;22.05;;
76574;SDS011;65439;50.948;6.988;2023-12-14T07:38:54;67.83;;;23.87;;
76574;SDS011;65439;50.948;6.988;2023-12-14T07:41:19;57.92;;;22.65;;
76574;SDS011;65439;50.948;6.988;2023-12-14T07:43:44;70.47;;;23.83;;
76574;SDS011;65439;50.948;6.988;2023-12-14T07:46:10;63.93;;;22.67;;
76574;SDS011;65439;50.948;6.988;2023-12-14T07:48:35;52.57;;;19.43;;
76574;SDS011;65439;50.948;6.988;2023-12-14T07:51:00;56.83;;;20.10;;
76574;SDS011;65439;50.948;6.988;2023-12-14T07:53:25;67.97;;;23.37;;
76574;SDS011;65439;50.948;6.988;2023-12-14T07:55:51;59.85;;;22.42;;
76574;SDS011;65439;50.948;6.988;2023-12-14T07:58:17;58.63;;;19.13;;
76574;SDS011;65439;50.948;6.988;2023-12-14T08:00:42;56.93;;;20.97;;
76574;SDS011;65439;50.948;6.988;2023-12-14T08:03:07;61.43;;;19.50;;
76574;SDS011;65439;50.948;6.988;2023-12-14T08:05:32;53.70;;;18.33;;
76574;SDS011;65439;50.948;6.988;2023-12-14T08:07:58;42.47;;;16.60;;
76574;SDS011;65439;50.948;6.988;2023-12-14T08:10:23;49.93;;;15.80;;
76574;SDS011;65439;50.948;6.988;2023-12-14T08:12:48;36.27;;;13.87;;
76574;SDS011;65439;50.948;6.988;2023-12-14T08:15:14;49.77;;;20.20;;
76574;SDS011;65439;50.948;6.988;2023-12-14T08:17:39;58.53;;;17.60;;
76574;SDS011;65439;50.948;6.988;2023-12-14T08:20:05;50.40;;;17.93;;
76574;SDS011;65439;50.948;6.988;2023-12-14T08:22:33;53.28;;;16.95;;
76574;SDS011;65439;50.948;6.988;2023-12-14T08:24:59;36.20;;;15.15;;
76574;SDS011;65439;50.948;6.988;2023-12-14T08:27:24;45.53;;;17.87;;
76574;SDS011;65439;50.948;6.988;2023-12-14T08:29:49;45.93;;;15.77;;
76574;SDS011;65439;50.948;6.988;2023-12-14T08:32:15;41.67;;;16.70;;
76574;SDS011;65439;50.948;6.988;2023-12-14T08:34:40;55.03;;;18.77;;
76574;SDS011;65439;50.948;6.988;2023-12-14T08:37:05;30.50;;;14.40;;
76574;SDS011;65439;50.948;6.988;2023-12-14T08:39:31;37.42;;;15.65;;
76574;SDS011;65439;50.948;6.988;2023-12-14T08:41:56;26.20;;;12.23;;
76574;SDS011;65439;50.948;6.988;2023-12-14T08:44:21;30.45;;;12.75;;
76574;SDS011;65439;50.948;6.988;2023-12-14T08:46:47;31.67;;;14.10;;
76574;SDS011;65439;50.948;6.988;2023-12-14T08:49:12;36.00;;;15.85;;
76574;SDS011;65439;50.948;6.988;2023-12-14T08:51:38;41.00;;;16.48;;
76574;SDS011;65439;50.948;6.988;2023-12-14T08:54:04;28.05;;;11.75;;
76574;SDS011;65439;50.948;6.988;2023-12-14T08:56:30;33.42;;;11.80;;
76574;SDS011;65439;50.948;6.988;2023-12-14T08:58:55;31.97;;;12.33;;
76574;SDS011;65439;50.948;6.988;2023-12-14T09:01:22;30.65;;;14.25;;
76574;SDS011;65439;50.948;6.988;2023-12-14T09:03:48;30.85;;;11.43;;
76574;SDS011;65439;50.948;6.988;2023-12-14T09:06:14;33.30;;;10.45;;
76574;SDS011;65439;50.948;6.988;2023-12-14T09:08:40;23.42;;;11.90;;
76574;SDS011;65439;50.948;6.988;2023-12-14T09:11:06;23.97;;;11.20;;
76574;SDS011;65439;50.948;6.988;2023-12-14T09:13:31;27.25;;;11.95;;
76574;SDS011;65439;50.948;6.988;2023-12-14T09:15:56;26.17;;;10.40;;
76574;SDS011;65439;50.948;6.988;2023-12-14T09:18:22;18.97;;;9.60;;
76574;SDS011;65439;50.948;6.988;2023-12-14T09:20:48;27.70;;;11.90;;
76574;SDS011;65439;50.948;6.988;2023-12-14T09:23:16;37.35;;;13.18;;
76574;SDS011;65439;50.948;6.988;2023-12-14T09:25:43;35.78;;;15.23;;
76574;SDS011;65439;50.948;6.988;2023-12-14T09:28:09;32.93;;;12.10;;
76574;SDS011;65439;50.948;6.988;2023-12-14T09:30:34;31.20;;;13.65;;
76574;SDS011;65439;50.948;6.988;2023-12-14T09:32:59;30.20;;;12.53;;
76574;SDS011;65439;50.948;6.988;2023-12-14T09:35:25;37.47;;;13.13;;
76574;SDS011;65439;50.948;6.988;2023-12-14T09:37:50;35.45;;;14.68;;
76574;SDS011;65439;50.948;6.988;2023-12-14T09:40:17;26.95;;;12.00;;
76574;SDS011;65439;50.948;6.988;2023-12-14T09:42:43;25.67;;;11.85;;
76574;SDS011;65439;50.948;6.988;2023-12-14T09:45:09;31.00;;;13.32;;
76574;SDS011;65439;50.948;6.988;2023-12-14T09:47:36;27.52;;;12.73;;
76574;SDS011;65439;50.948;6.988;2023-12-14T09:50:01;29.88;;;12.13;;
76574;SDS011;65439;50.948;6.988;2023-12-14T09:52:28;30.55;;;13.13;;
76574;SDS011;65439;50.948;6.988;2023-12-14T09:54:53;33.23;;;11.50;;
76574;SDS011;65439;50.948;6.988;2023-12-14T09:57:18;30.43;;;13.10;;
76574;SDS011;65439;50.948;6.988;2023-12-14T09:59:50;24.83;;;12.98;;
76574;SDS011;65439;50.948;6.988;2023-12-14T10:02:16;39.13;;;14.95;;
76574;SDS011;65439;50.948;6.988;2023-12-14T10:04:42;32.70;;;13.20;;
76574;SDS011;65439;50.948;6.988;2023-12-14T10:07:08;38.17;;;14.15;;
76574;SDS011;65439;50.948;6.988;2023-12-14T10:09:34;40.67;;;15.07;;
76574;SDS011;65439;50.948;6.988;2023-12-14T10:12:03;46.90;;;17.85;;
76574;SDS011;65439;50.948;6.988;2023-12-14T10:14:32;39.97;;;17.55;;
76574;SDS011;65439;50.948;6.988;2023-12-14T10:16:58;52.17;;;17.35;;
76574;SDS011;65439;50.948;6.988;2023-12-14T10:19:24;45.28;;;16.30;;
76574;SDS011;65439;50.948;6.988;2023-12-14T10:21:50;44.50;;;15.35;;
76574;SDS011;65439;50.948;6.988;2023-12-14T10:24:16;42.33;;;16.90;;
76574;SDS011;65439;50.948;6.988;2023-12-14T10:26:44;43.17;;;17.05;;
76574;SDS011;65439;50.948;6.988;2023-12-14T10:29:09;64.57;;;24.52;;
76574;SDS011;65439;50.948;6.988;2023-12-14T10:31:35;54.43;;;23.57;;
76574;SDS011;65439;50.948;6.988;2023-12-14T10:34:03;57.97;;;20.33;;
76574;SDS011;65439;50.948;6.988;2023-12-14T10:36:28;46.53;;;17.50;;
76574;SDS011;65439;50.948;6.988;2023-12-14T10:38:54;59.47;;;21.35;;
76574;SDS011;65439;50.948;6.988;2023-12-14T10:41:22;33.22;;;14.73;;
76574;SDS011;65439;50.948;6.988;2023-12-14T10:43:48;49.90;;;17.48;;
76574;SDS011;65439;50.948;6.988;2023-12-14T10:46:14;61.47;;;21.40;;
76574;SDS011;65439;50.948;6.988;2023-12-14T10:48:39;50.55;;;19.77;;
76574;SDS011;65439;50.948;6.988;2023-12-14T10:51:07;55.30;;;22.27;;
76574;SDS011;65439;50.948;6.988;2023-12-14T10:53:33;49.42;;;17.17;;
76574;SDS011;65439;50.948;6.988;2023-12-14T10:55:59;49.53;;;19.52;;
76574;SDS011;65439;50.948;6.988;2023-12-14T10:58:27;51.75;;;20.58;;
76574;SDS011;65439;50.948;6.988;2023-12-14T11:01:13;52.75;;;20.80;;
76574;SDS011;65439;50.948;6.988;2023-12-14T11:03:39;44.83;;;17.30;;
76574;SDS011;65439;50.948;6.988;2023-12-14T11:06:15;50.65;;;18.42;;
76574;SDS011;65439;50.948;6.988;2023-12-14T11:08:46;47.83;;;18.63;;
76574;SDS011;65439;50.948;6.988;2023-12-14T11:11:11;42.27;;;17.53;;
76574;SDS011;65439;50.948;6.988;2023-12-14T11:13:38;45.90;;;17.80;;
76574;SDS011;65439;50.948;6.988;2023-12-14T11:16:05;45.33;;;16.63;;
76574;SDS011;65439;50.948;6.988;2023-12-14T11:18:30;48.63;;;19.08;;
76574;SDS011;65439;50.948;6.988;2023-12-14T11:20:59;43.42;;;17.85;;
76574;SDS011;65439;50.948;6.988;2023-12-14T11:25:53;38.15;;;15.63;;
76574;SDS011;65439;50.948;6.988;2023-12-14T11:28:19;39.00;;;15.55;;
76574;SDS011;65439;50.948;6.988;2023-12-14T11:30:45;38.85;;;15.48;;
76574;SDS011;65439;50.948;6.988;2023-12-14T11:33:14;41.45;;;16.98;;
76574;SDS011;65439;50.948;6.988;2023-12-14T11:35:41;36.30;;;15.80;;
76574;SDS011;65439;50.948;6.988;2023-12-14T11:38:06;35.63;;;14.63;;
76574;SDS011;65439;50.948;6.988;2023-12-14T11:40:41;48.17;;;18.48;;
76574;SDS011;65439;50.948;6.988;2023-12-14T11:43:07;43.58;;;19.60;;
76574;SDS011;65439;50.948;6.988;2023-12-14T11:45:33;35.35;;;17.38;;
76574;SDS011;65439;50.948;6.988;2023-12-14T11:48:02;38.08;;;18.83;;
76574;SDS011;65439;50.948;6.988;2023-12-14T11:50:32;30.55;;;14.18;;
76574;SDS011;65439;50.948;6.988;2023-12-14T11:52:58;38.00;;;17.17;;
76574;SDS011;65439;50.948;6.988;2023-12-14T11:55:24;36.80;;;18.05;;
76574;SDS011;65439;50.948;6.988;2023-12-14T11:57:49;30.40;;;16.90;;
76574;SDS011;65439;50.948;6.988;2023-12-14T12:00:17;41.50;;;19.93;;
76574;SDS011;65439;50.948;6.988;2023-12-14T12:02:42;44.80;;;17.48;;
76574;SDS011;65439;50.948;6.988;2023-12-14T12:05:08;51.38;;;19.92;;
76574;SDS011;65439;50.948;6.988;2023-12-14T12:07:33;41.60;;;16.40;;
76574;SDS011;65439;50.948;6.988;2023-12-14T12:09:59;39.95;;;16.60;;
76574;SDS011;65439;50.948;6.988;2023-12-14T12:12:24;47.42;;;18.65;;
76574;SDS011;65439;50.948;6.988;2023-12-14T12:14:49;42.85;;;17.10;;
76574;SDS011;65439;50.948;6.988;2023-12-14T12:17:17;52.95;;;21.80;;
76574;SDS011;65439;50.948;6.988;2023-12-14T12:22:09;45.33;;;19.17;;
76574;SDS011;65439;50.948;6.988;2023-12-14T12:24:35;47.40;;;17.87;;
76574;SDS011;65439;50.948;6.988;2023-12-14T12:27:00;30.43;;;14.10;;
76574;SDS011;65439;50.948;6.988;2023-12-14T12:29:26;42.58;;;18.58;;
76574;SDS011;65439;50.948;6.988;2023-12-14T12:31:51;52.53;;;23.43;;
76574;SDS011;65439;50.948;6.988;2023-12-14T12:34:16;42.00;;;17.27;;
76574;SDS011;65439;50.948;6.988;2023-12-14T12:36:42;36.35;;;15.68;;
76574;SDS011;65439;50.948;6.988;2023-12-14T12:39:07;48.90;;;21.70;;
76574;SDS011;65439;50.948;6.988;2023-12-14T12:41:33;47.20;;;18.95;;
76574;SDS011;65439;50.948;6.988;2023-12-14T12:43:59;43.88;;;18.23;;
76574;SDS011;65439;50.948;6.988;2023-12-14T12:46:30;41.63;;;16.75;;
76574;SDS011;65439;50.948;6.988;2023-12-14T12:49:00;34.38;;;16.35;;
76574;SDS011;65439;50.948;6.988;2023-12-14T12:51:26;29.17;;;14.48;;
76574;SDS011;65439;50.948;6.988;2023-12-14T12:53:52;35.13;;;15.35;;
76574;SDS011;65439;50.948;6.988;2023-12-14T12:56:18;33.88;;;15.07;;
76574;SDS011;65439;50.948;6.988;2023-12-14T12:58:44;37.67;;;16.05;;
76574;SDS011;65439;50.948;6.988;2023-12-14T13:01:09;27.30;;;14.87;;
76574;SDS011;65439;50.948;6.988;2023-12-14T13:03:34;29.08;;;13.40;;
76574;SDS011;65439;50.948;6.988;2023-12-14T13:06:00;31.17;;;14.07;;
76574;SDS011;65439;50.948;6.988;2023-12-14T13:08:25;33.37;;;13.43;;
76574;SDS011;65439;50.948;6.988;2023-12-14T13:10:50;30.77;;;15.27;;
76574;SDS011;65439;50.948;6.988;2023-12-14T13:13:19;27.52;;;12.85;;
76574;SDS011;65439;50.948;6.988;2023-12-14T13:15:44;26.60;;;13.07;;
76574;SDS011;65439;50.948;6.988;2023-12-14T13:18:09;30.40;;;12.57;;
76574;SDS011;65439;50.948;6.988;2023-12-14T13:20:35;25.98;;;13.90;;
76574;SDS011;65439;50.948;6.988;2023-12-14T13:23:01;28.33;;;13.93;;
76574;SDS011;65439;50.948;6.988;2023-12-14T13:25:26;26.38;;;13.30;;
76574;SDS011;65439;50.948;6.988;2023-12-14T13:27:51;20.23;;;10.97;;
76574;SDS011;65439;50.948;6.988;2023-12-14T13:30:17;25.90;;;12.57;;
76574;SDS011;65439;50.948;6.988;2023-12-14T13:32:42;24.42;;;12.30;;
76574;SDS011;65439;50.948;6.988;2023-12-14T13:35:08;21.10;;;10.85;;
76574;SDS011;65439;50.948;6.988;2023-12-14T13:37:34;21.05;;;10.50;;
76574;SDS011;65439;50.948;6.988;2023-12-14T13:39:59;22.25;;;11.07;;
76574;SDS011;65439;50.948;6.988;2023-12-14T13:42:25;22.47;;;10.43;;
76574;SDS011;65439;50.948;6.988;2023-12-14T13:44:50;23.85;;;10.88;;
76574;SDS011;65439;50.948;6.988;2023-12-14T13:47:15;20.57;;;10.30;;
76574;SDS011;65439;50.948;6.988;2023-12-14T13:49:41;16.27;;;8.73;;
76574;SDS011;65439;50.948;6.988;2023-12-14T13:52:07;22.70;;;10.55;;
76574;SDS011;65439;50.948;6.988;2023-12-14T13:54:32;18.33;;;10.07;;
76574;SDS011;65439;50.948;6.988;2023-12-14T13:56:57;21.50;;;10.80;;
76574;SDS011;65439;50.948;6.988;2023-12-14T13:59:23;19.17;;;8.80;;
76574;SDS011;65439;50.948;6.988;2023-12-14T14:01:48;20.50;;;9.43;;
76574;SDS011;65439;50.948;6.988;2023-12-14T14:04:17;17.10;;;9.55;;
76574;SDS011;65439;50.948;6.988;2023-12-14T14:06:42;15.95;;;8.60;;
76574;SDS011;65439;50.948;6.988;2023-12-14T14:09:08;17.17;;;9.00;;
76574;SDS011;65439;50.948;6.988;2023-12-14T14:11:33;18.20;;;9.48;;
76574;SDS011;65439;50.948;6.988;2023-12-14T14:14:00;17.00;;;9.02;;
76574;SDS011;65439;50.948;6.988;2023-12-14T14:16:25;16.88;;;8.40;;
76574;SDS011;65439;50.948;6.988;2023-12-14T14:18:50;21.48;;;10.85;;